Honaunau, HI

2:52 AM HST on October 02, 2014 (GMT -1000)
Hilo International | Change Station
CLOSE
Current Station
Airport
Location: Hilo,
Elevation: 36 ft
Nearby Weather Stations
Active Advisory: High Surf Advisory

Elev 36 ft 19.72 °N, 155.05 °W | Updated 33 minutes ago

Mostly Cloudy
Mostly Cloudy
72 °F
Feels Like 72 °F
N
6
Wind Variable Wind from WSW

Today
High -- | Low -- °F
--% Chance of Precip.
Yesterday
High -- | Low -- °F
Precip. -- in
6:14 AM 6:10 PM
First Quarter, 58% visible
Pressure 29.92 in
Visibility 10.0 miles
Clouds Scattered Clouds 2700 ft
Mostly Cloudy 6500 ft
Dew Point 70 °F
Humidity 93%
Rainfall 0.07 in
Snow Depth Not available.
UV 0 out of 12
Pollen Not available.
Air Quality Not available.
Flu Activity Not available.
SPECI PHTO 021219Z 24005KT 10SM SCT027 BKN065 22/21 A2992 RMK AO2 RAE1156 P0000 T02220211 $

More Conditions Fewer Conditions

Pressure 29.92 in
Visibility 10.0 miles
Clouds Scattered Clouds 2700 ft
Mostly Cloudy 6500 ft
Dew Point 70 °F
Humidity 93%
Rainfall 0.07 in
Snow Depth Not available.
UV 0 out of 12
Pollen Not available.
Air Quality Not available.
Flu Activity Not available.
SPECI PHTO 021219Z 24005KT 10SM SCT027 BKN065 22/21 A2992 RMK AO2 RAE1156 P0000 T02220211 $

More Conditions Fewer Conditions

10-Day Weather Forecast

Almanac

Astronomy

Oct. 02, 2014 Rise Set
Actual Time 6:14 AM HST 6:10 PM HST
Civil Twilight 5:52 AM HST 6:32 PM HST
Nautical Twilight 5:27 AM HST 6:58 PM HST
Astronomical Twilight 5:01 AM HST 7:23 PM HST
Moon 1:45 PM HST 12:26 AM HST
Length of Visible Light 12h 40m
Length of Day
11h 56m
Tomorrow will be 1m 5s shorter.
First Quarter, 58% of the Moon is Illuminated
Today
First Quarter
Oct 8
Full
Oct 15
Last Quarter
Oct 23
New
Oct 30
First Quarter

Today's Extremes

State Highs State Lows

Community

WunderPhotos

Upload Photos

1,758,226 photos uploaded!

WunderBlogs® & News

By Dr. Jeff Masters
Director of Meteorology, Weather Underground
By Kari Strenfel
Meteorologist, Weather Underground
By Christopher C. Burt
Weather Historian, Weather Underground
October 2, 2014
October 2, 2014
October 2, 2014

Nearby

Snow Depth

Station Depth Elevation
No new snow has been reported.

Earthquake Activity

City Distance Mag. Time & Date
No recent earthquake activity has been reported nearby.
Minimum magnitude displayed is 2.5.

Coastal Water Temperatures

Place Temperature
No Stations Reporting

Nearby Weather Stations